createdAt,value
2023-01-28T00:00:51.901Z,99.76
2023-01-28T00:03:09.311Z,100.00
2023-01-28T00:05:22.602Z,99.97
2023-01-28T00:07:36.321Z,99.82
2023-01-28T00:09:49.462Z,99.86
2023-01-28T00:12:03.156Z,100.00
2023-01-28T00:14:17.023Z,100.00
2023-01-28T00:16:31.814Z,99.99
2023-01-28T00:18:46.485Z,100.00
2023-01-28T00:21:07.582Z,100.00
2023-01-28T00:23:21.562Z,99.65
2023-01-28T00:25:34.802Z,99.93
2023-01-28T00:27:48.542Z,99.97
2023-01-28T00:30:03.356Z,99.86
2023-01-28T00:32:17.053Z,99.79
2023-01-28T00:34:34.391Z,99.89
2023-01-28T00:36:47.301Z,99.97
2023-01-28T00:39:02.580Z,99.96
2023-01-28T00:41:16.582Z,99.48
2023-01-28T00:43:29.591Z,99.16
2023-01-28T00:45:42.855Z,99.66
2023-01-28T00:47:55.950Z,99.86
2023-01-28T00:50:10.121Z,99.81
2023-01-28T00:52:23.492Z,99.96
2023-01-28T00:54:37.658Z,100.00
2023-01-28T00:56:51.172Z,100.00
2023-01-28T00:59:04.590Z,100.00
2023-01-28T01:01:20.220Z,100.00
2023-01-28T01:03:33.860Z,100.00
2023-01-28T01:05:48.093Z,100.00
2023-01-28T01:08:01.113Z,100.00
2023-01-28T01:10:16.062Z,100.00
2023-01-28T01:12:29.402Z,99.96
2023-01-28T01:14:42.380Z,99.87
2023-01-28T01:16:56.420Z,99.89
2023-01-28T01:19:10.316Z,100.00
2023-01-28T01:21:25.163Z,100.00
2023-01-28T01:23:38.513Z,100.00
2023-01-28T01:25:53.022Z,100.00
2023-01-28T01:28:06.150Z,100.00
2023-01-28T01:30:19.891Z,100.00
2023-01-28T01:32:36.210Z,100.00
2023-01-28T01:34:50.761Z,100.00
2023-01-28T01:37:05.141Z,100.00
2023-01-28T01:39:18.642Z,100.00
2023-01-28T01:41:34.089Z,100.00
2023-01-28T01:44:00.065Z,100.00
2023-01-28T01:46:13.319Z,100.00
2023-01-28T01:48:32.892Z,100.00
2023-01-28T01:50:56.967Z,100.00
2023-01-28T01:53:15.141Z,100.00
2023-01-28T01:55:31.953Z,100.00
2023-01-28T01:57:45.880Z,100.00
2023-01-28T02:00:06.981Z,100.00
2023-01-28T02:02:29.471Z,100.00
2023-01-28T02:04:45.852Z,100.00
2023-01-28T02:07:03.665Z,100.00
2023-01-28T02:09:30.862Z,100.00
2023-01-28T02:11:44.066Z,100.00
2023-01-28T02:14:00.632Z,100.00
2023-01-28T02:16:16.240Z,100.00
2023-01-28T02:18:31.070Z,100.00
2023-01-28T02:21:02.212Z,100.00
2023-01-28T02:23:48.533Z,100.00
2023-01-28T02:26:32.840Z,100.00
2023-01-28T02:28:52.304Z,100.00
2023-01-28T02:31:12.516Z,100.00
2023-01-28T02:33:33.481Z,100.00
2023-01-28T02:35:51.641Z,100.00
2023-01-28T02:38:11.861Z,100.00
2023-01-28T02:40:30.988Z,100.00
2023-01-28T02:42:45.935Z,100.00
2023-01-28T02:45:00.638Z,100.00
2023-01-28T02:47:33.530Z,100.00
2023-01-28T02:49:51.852Z,100.00
2023-01-28T02:52:19.098Z,100.00
2023-01-28T02:54:43.993Z,100.00
2023-01-28T02:57:04.119Z,100.00
2023-01-28T02:59:38.038Z,100.00
2023-01-28T03:02:00.449Z,100.00
2023-01-28T03:04:20.873Z,100.00
2023-01-28T03:06:40.539Z,100.00
2023-01-28T03:09:13.539Z,100.00
2023-01-28T03:11:44.698Z,100.00
2023-01-28T03:14:14.450Z,100.00
2023-01-28T03:16:43.992Z,100.00
2023-01-28T03:19:14.819Z,100.00
2023-01-28T03:21:48.704Z,100.00
2023-01-28T03:24:22.914Z,100.00
2023-01-28T03:26:56.360Z,100.00
2023-01-28T03:29:30.761Z,100.00
2023-01-28T03:32:01.201Z,100.00
2023-01-28T03:34:33.450Z,100.00
2023-01-28T03:36:52.511Z,100.00
2023-01-28T03:39:31.787Z,100.00
2023-01-28T03:41:44.989Z,100.00
2023-01-28T03:44:13.289Z,100.00
2023-01-28T03:46:27.319Z,100.00
2023-01-28T03:48:40.909Z,100.00
2023-01-28T03:50:56.013Z,100.00
2023-01-28T03:53:16.914Z,100.00
2023-01-28T03:55:35.641Z,100.00
2023-01-28T03:57:49.660Z,100.00
2023-01-28T04:00:03.382Z,100.00
2023-01-28T04:02:28.470Z,100.00
2023-01-28T04:04:45.460Z,100.00
2023-01-28T04:07:00.061Z,100.00
2023-01-28T04:09:51.259Z,100.00
2023-01-28T04:12:13.381Z,100.00
2023-01-28T04:14:33.034Z,100.00
2023-01-28T04:17:00.547Z,100.00
2023-01-28T04:19:14.919Z,100.00
2023-01-28T04:21:30.152Z,100.00
2023-01-28T04:23:45.602Z,100.00
2023-01-28T04:26:00.102Z,100.00
2023-01-28T04:28:13.609Z,100.00
2023-01-28T04:30:27.667Z,100.00
2023-01-28T04:32:59.120Z,100.00
2023-01-28T04:35:23.299Z,100.00
2023-01-28T04:37:57.193Z,100.00
2023-01-28T04:40:18.057Z,100.00
2023-01-28T04:42:42.913Z,100.00
2023-01-28T04:45:06.809Z,100.00
2023-01-28T04:47:58.799Z,100.00
2023-01-28T04:50:35.292Z,100.00
2023-01-28T04:53:02.768Z,100.00
2023-01-28T04:55:36.370Z,100.00
2023-01-28T04:57:50.568Z,100.00
2023-01-28T05:00:04.642Z,100.00
2023-01-28T05:02:18.267Z,100.00
2023-01-28T05:04:32.802Z,100.00
2023-01-28T05:06:46.741Z,100.00
2023-01-28T05:09:07.669Z,100.00
2023-01-28T05:11:21.259Z,100.00
2023-01-28T05:13:38.330Z,100.00
2023-01-28T05:15:57.187Z,100.00
2023-01-28T05:18:11.661Z,100.00
2023-01-28T05:20:30.300Z,100.00
2023-01-28T05:22:43.999Z,100.00
2023-01-28T05:25:08.898Z,100.00
2023-01-28T05:27:22.684Z,100.00
2023-01-28T05:29:36.274Z,100.00
2023-01-28T05:31:50.720Z,100.00
2023-01-28T05:34:03.865Z,100.00
2023-01-28T05:36:17.711Z,100.00
2023-01-28T05:38:31.155Z,100.00
2023-01-28T05:40:44.351Z,100.00
2023-01-28T05:42:58.939Z,100.00
2023-01-28T05:45:24.495Z,100.00
2023-01-28T05:47:56.333Z,100.00
2023-01-28T05:50:19.419Z,100.00
2023-01-28T05:53:05.093Z,100.00
2023-01-28T05:55:20.781Z,100.00
2023-01-28T05:57:34.100Z,100.00
2023-01-28T05:59:48.420Z,100.00
2023-01-28T06:02:02.446Z,100.00
2023-01-28T06:04:16.303Z,100.00
2023-01-28T06:06:30.102Z,100.00
2023-01-28T06:08:43.339Z,100.00
2023-01-28T06:10:57.079Z,100.00
2023-01-28T06:13:10.899Z,100.00
2023-01-28T06:15:42.287Z,100.00
2023-01-28T06:18:05.863Z,100.00
2023-01-28T06:20:22.003Z,100.00
2023-01-28T06:22:36.630Z,100.00
2023-01-28T06:24:49.910Z,100.00
2023-01-28T06:27:03.716Z,100.00
2023-01-28T06:29:16.676Z,100.00
2023-01-28T06:31:30.120Z,100.00
2023-01-28T06:33:43.461Z,100.00
2023-01-28T06:35:56.658Z,100.00
2023-01-28T06:38:10.668Z,100.00
2023-01-28T06:40:26.242Z,100.00
2023-01-28T06:42:39.080Z,100.00
2023-01-28T06:44:52.122Z,100.00
2023-01-28T06:47:05.009Z,100.00
2023-01-28T06:49:18.171Z,100.00
2023-01-28T06:51:31.151Z,100.00
2023-01-28T06:53:46.038Z,100.00
2023-01-28T06:55:59.569Z,100.00
2023-01-28T06:58:14.809Z,99.99
2023-01-28T07:00:28.793Z,100.00
2023-01-28T07:02:41.761Z,100.00
2023-01-28T07:04:55.056Z,100.00
2023-01-28T07:07:08.725Z,100.00
2023-01-28T07:09:22.240Z,100.00
2023-01-28T07:11:36.074Z,99.98
2023-01-28T07:13:49.191Z,100.00
2023-01-28T07:16:02.136Z,100.00
2023-01-28T07:18:15.622Z,100.00
2023-01-28T07:20:28.699Z,100.00
2023-01-28T07:22:42.522Z,100.00
2023-01-28T07:24:55.443Z,100.00
2023-01-28T07:27:09.019Z,100.00
2023-01-28T07:29:22.580Z,100.00
2023-01-28T07:31:36.970Z,100.00
2023-01-28T07:33:51.244Z,99.99
2023-01-28T07:36:04.346Z,99.95
2023-01-28T07:38:18.637Z,100.00
2023-01-28T07:40:32.650Z,100.00
2023-01-28T07:42:45.653Z,100.00
2023-01-28T07:44:58.632Z,100.00
2023-01-28T07:47:13.517Z,100.00
2023-01-28T07:49:27.319Z,100.00
2023-01-28T07:51:40.439Z,100.00
2023-01-28T07:53:53.759Z,100.00
2023-01-28T07:56:10.233Z,100.00
2023-01-28T07:58:23.179Z,100.00
2023-01-28T08:00:39.447Z,100.00
2023-01-28T08:02:52.870Z,100.00
2023-01-28T08:05:06.018Z,100.00
2023-01-28T08:07:19.646Z,100.00
2023-01-28T08:09:35.349Z,100.00
2023-01-28T08:11:49.270Z,100.00
2023-01-28T08:14:02.320Z,100.00
2023-01-28T08:16:15.698Z,99.99
2023-01-28T08:18:28.741Z,99.94
2023-01-28T08:20:42.520Z,99.96
2023-01-28T08:22:55.363Z,99.96
2023-01-28T08:25:09.075Z,99.97
2023-01-28T08:27:22.047Z,99.92
2023-01-28T08:29:35.640Z,99.84
2023-01-28T08:31:48.798Z,99.76
2023-01-28T08:34:05.282Z,99.86
2023-01-28T08:36:19.043Z,99.73
2023-01-28T08:38:33.007Z,99.76
2023-01-28T08:40:46.128Z,99.90
2023-01-28T08:43:00.013Z,99.79
2023-01-28T08:45:14.521Z,99.93
2023-01-28T08:47:27.834Z,99.93
2023-01-28T08:49:40.860Z,99.90
2023-01-28T08:51:53.809Z,99.77
2023-01-28T08:54:06.703Z,99.89
2023-01-28T08:56:19.542Z,99.44
2023-01-28T08:58:33.754Z,99.20
2023-01-28T09:00:47.418Z,99.19
2023-01-28T09:03:01.030Z,99.04
2023-01-28T09:05:14.791Z,99.14
2023-01-28T09:07:31.311Z,99.22
2023-01-28T09:09:44.888Z,99.13
2023-01-28T09:11:57.910Z,99.05
2023-01-28T09:14:11.733Z,99.23
2023-01-28T09:16:26.820Z,99.46
2023-01-28T09:18:40.544Z,99.43
2023-01-28T09:20:53.603Z,99.56
2023-01-28T09:23:08.630Z,99.76
2023-01-28T09:25:22.549Z,99.59
2023-01-28T09:27:35.733Z,99.62
2023-01-28T09:29:48.983Z,99.55
2023-01-28T09:32:01.949Z,99.71
2023-01-28T09:34:15.200Z,99.73
2023-01-28T09:36:29.385Z,99.61
2023-01-28T09:38:42.959Z,99.53
2023-01-28T09:40:57.240Z,99.35
2023-01-28T09:43:34.609Z,99.23
2023-01-28T09:45:50.943Z,99.04
2023-01-28T09:48:06.959Z,98.99
2023-01-28T09:50:27.059Z,99.15
2023-01-28T09:52:43.790Z,98.99
2023-01-28T09:55:02.130Z,98.78
2023-01-28T09:57:23.069Z,98.72
2023-01-28T09:59:38.370Z,98.86
2023-01-28T10:01:56.571Z,98.88
2023-01-28T10:04:24.265Z,98.98
2023-01-28T10:06:49.418Z,99.00
2023-01-28T10:09:28.897Z,99.06
2023-01-28T10:11:57.179Z,99.16
2023-01-28T10:14:16.252Z,99.05
2023-01-28T10:16:38.279Z,98.90
2023-01-28T10:18:57.441Z,98.86
2023-01-28T10:21:16.430Z,98.55
2023-01-28T10:23:35.980Z,98.35
2023-01-28T10:25:51.340Z,98.38
2023-01-28T10:28:04.500Z,98.51
2023-01-28T10:30:26.483Z,98.62
2023-01-28T10:32:43.211Z,98.52
2023-01-28T10:34:57.960Z,98.69
2023-01-28T10:37:13.222Z,98.87
2023-01-28T10:39:29.151Z,98.99
2023-01-28T10:41:55.724Z,99.20
2023-01-28T10:44:14.670Z,99.43
2023-01-28T10:46:32.242Z,99.66
2023-01-28T10:48:49.651Z,99.60
2023-01-28T10:51:06.779Z,99.32
2023-01-28T10:53:20.126Z,99.51
2023-01-28T10:55:35.441Z,99.57
2023-01-28T10:57:51.777Z,99.32
2023-01-28T11:00:17.091Z,99.33
2023-01-28T11:02:38.241Z,99.37
2023-01-28T11:04:51.312Z,98.97
2023-01-28T11:07:07.296Z,99.00
2023-01-28T11:09:31.962Z,99.12
2023-01-28T11:11:45.071Z,99.23
2023-01-28T11:13:59.789Z,99.58
2023-01-28T11:16:23.512Z,99.59
2023-01-28T11:18:39.489Z,99.64
2023-01-28T11:20:59.680Z,99.88
2023-01-28T11:23:21.540Z,99.74
2023-01-28T11:25:37.941Z,99.81
2023-01-28T11:27:55.114Z,99.79
2023-01-28T11:30:10.262Z,99.67
2023-01-28T11:32:28.751Z,99.48
2023-01-28T11:34:51.515Z,99.28
2023-01-28T11:37:18.466Z,99.22
2023-01-28T11:39:32.980Z,99.32
2023-01-28T11:41:46.491Z,99.34
2023-01-28T11:44:00.359Z,99.43
2023-01-28T11:46:32.931Z,99.53
2023-01-28T11:48:54.843Z,99.52
2023-01-28T11:51:19.520Z,98.97
2023-01-28T11:54:04.529Z,98.15
2023-01-28T11:56:31.693Z,98.23
2023-01-28T11:58:56.415Z,97.94
2023-01-28T12:01:16.020Z,97.79
2023-01-28T12:03:43.708Z,97.98
2023-01-28T12:05:59.663Z,98.37
2023-01-28T12:08:20.891Z,98.63
2023-01-28T12:10:43.191Z,98.94
2023-01-28T12:13:14.183Z,98.94
2023-01-28T12:15:44.363Z,99.01
2023-01-28T12:18:11.995Z,98.98
2023-01-28T12:20:32.799Z,98.95
2023-01-28T12:23:17.294Z,99.00
2023-01-28T12:25:42.672Z,99.46
2023-01-28T12:28:02.519Z,99.30
2023-01-28T12:30:28.159Z,99.10
2023-01-28T12:33:01.299Z,98.89
2023-01-28T12:35:34.459Z,98.53
2023-01-28T12:38:01.015Z,98.74
2023-01-28T12:40:37.031Z,98.24
2023-01-28T12:42:56.310Z,98.40
2023-01-28T12:45:19.663Z,98.57
2023-01-28T12:47:37.369Z,99.10
2023-01-28T12:49:54.490Z,99.31
2023-01-28T12:52:14.400Z,99.07
2023-01-28T12:54:32.500Z,99.05
2023-01-28T12:56:49.186Z,98.88
2023-01-28T12:59:07.612Z,98.61
2023-01-28T13:01:26.760Z,98.45
2023-01-28T13:03:45.599Z,98.99
2023-01-28T13:06:03.864Z,98.75
2023-01-28T13:08:22.702Z,98.56
2023-01-28T13:10:42.159Z,98.61
2023-01-28T13:12:55.591Z,98.52
2023-01-28T13:15:09.822Z,98.41
2023-01-28T13:17:33.848Z,98.42
2023-01-28T13:19:47.913Z,98.57
2023-01-28T13:22:01.070Z,98.77
2023-01-28T13:24:34.969Z,98.76
2023-01-28T13:26:52.061Z,98.88
2023-01-28T13:29:26.033Z,99.05
2023-01-28T13:31:43.940Z,99.21
2023-01-28T13:34:08.488Z,99.17
2023-01-28T13:36:31.031Z,99.03
2023-01-28T13:38:44.521Z,99.00
2023-01-28T13:41:07.510Z,99.20
2023-01-28T13:43:42.993Z,99.07
2023-01-28T13:46:05.448Z,98.99
2023-01-28T13:48:33.303Z,99.05
2023-01-28T13:50:49.135Z,99.10
2023-01-28T13:53:07.931Z,98.95
2023-01-28T13:55:42.987Z,98.67
2023-01-28T13:58:29.140Z,98.55
2023-01-28T14:01:01.414Z,98.81
2023-01-28T14:03:33.881Z,98.90
2023-01-28T14:06:09.853Z,98.92
2023-01-28T14:08:57.938Z,98.84
2023-01-28T14:11:29.060Z,98.69
2023-01-28T14:14:04.490Z,98.42
2023-01-28T14:16:40.071Z,98.04
2023-01-28T14:18:54.601Z,97.82
2023-01-28T14:21:13.132Z,97.63
2023-01-28T14:23:28.040Z,97.78
2023-01-28T14:25:53.961Z,97.70
2023-01-28T14:28:10.507Z,97.95
2023-01-28T14:30:29.879Z,97.86
2023-01-28T14:32:48.312Z,97.68
2023-01-28T14:35:03.019Z,97.63
2023-01-28T14:37:22.132Z,97.70
2023-01-28T14:39:40.907Z,97.56
2023-01-28T14:41:56.663Z,97.44
2023-01-28T14:44:11.560Z,97.13
2023-01-28T14:46:37.344Z,97.04
2023-01-28T14:49:00.792Z,97.23
2023-01-28T14:51:34.262Z,96.92
2023-01-28T14:54:18.302Z,96.82
2023-01-28T14:56:44.605Z,96.83
2023-01-28T14:59:01.562Z,96.72
2023-01-28T15:01:26.745Z,97.00
2023-01-28T15:03:48.764Z,97.02
2023-01-28T15:06:16.938Z,96.93
2023-01-28T15:08:30.070Z,96.83
2023-01-28T15:10:44.477Z,96.87
2023-01-28T15:13:03.159Z,97.11
2023-01-28T15:15:21.613Z,97.31
2023-01-28T15:17:35.083Z,97.39
2023-01-28T15:19:48.170Z,97.52
2023-01-28T15:22:04.381Z,97.39
2023-01-28T15:24:19.767Z,97.65
2023-01-28T15:26:35.118Z,97.58
2023-01-28T15:28:49.880Z,97.88
2023-01-28T15:31:03.892Z,98.16
2023-01-28T15:33:21.046Z,98.12
2023-01-28T15:35:34.651Z,98.29
2023-01-28T15:40:22.316Z,98.25
2023-01-28T15:42:39.769Z,97.86
2023-01-28T15:44:53.918Z,97.86
2023-01-28T15:47:14.947Z,97.91
2023-01-28T15:49:31.355Z,98.06
2023-01-28T15:51:44.654Z,97.92
2023-01-28T15:54:01.301Z,97.71
2023-01-28T15:56:17.249Z,97.73
2023-01-28T15:58:38.219Z,97.66
2023-01-28T16:00:52.466Z,97.66
2023-01-28T16:03:13.744Z,97.83
2023-01-28T16:05:38.938Z,97.64
2023-01-28T16:07:52.419Z,97.71
2023-01-28T16:10:06.949Z,97.67
2023-01-28T16:12:22.789Z,97.54
2023-01-28T16:14:41.408Z,97.68
2023-01-28T16:16:55.108Z,97.89
2023-01-28T16:19:10.001Z,98.29
2023-01-28T16:21:30.473Z,98.35
2023-01-28T16:23:43.798Z,98.36
2023-01-28T16:26:05.039Z,98.34
2023-01-28T16:28:23.410Z,98.28
2023-01-28T16:30:36.675Z,98.34
2023-01-28T16:32:50.499Z,98.16
2023-01-28T16:35:04.309Z,98.06
2023-01-28T16:37:17.751Z,97.74
2023-01-28T16:39:31.405Z,97.78
2023-01-28T16:41:46.972Z,97.78
2023-01-28T16:44:02.331Z,97.93
2023-01-28T16:46:18.337Z,97.94
2023-01-28T16:48:31.841Z,98.23
2023-01-28T16:50:46.719Z,98.42
2023-01-28T16:53:03.650Z,98.51
2023-01-28T16:55:21.254Z,98.65
2023-01-28T16:57:38.862Z,98.91
2023-01-28T16:59:52.118Z,98.98
2023-01-28T17:02:06.160Z,98.81
2023-01-28T17:04:19.600Z,98.92
2023-01-28T17:06:32.792Z,98.97
2023-01-28T17:08:46.960Z,98.93
2023-01-28T17:11:00.759Z,99.20
2023-01-28T17:13:15.049Z,99.22
2023-01-28T17:15:28.194Z,99.41
2023-01-28T17:17:41.176Z,99.50
2023-01-28T17:19:55.073Z,99.66
2023-01-28T17:22:08.120Z,99.89
2023-01-28T17:24:22.054Z,99.84
2023-01-28T17:26:36.479Z,99.77
2023-01-28T17:28:54.829Z,99.89
2023-01-28T17:31:13.237Z,99.90
2023-01-28T17:33:26.202Z,99.79
2023-01-28T17:35:39.922Z,99.71
2023-01-28T17:37:55.527Z,99.64
2023-01-28T17:40:10.410Z,99.70
2023-01-28T17:42:25.401Z,99.50
2023-01-28T17:44:40.059Z,99.21
2023-01-28T17:46:53.078Z,99.40
2023-01-28T17:49:07.517Z,99.19
2023-01-28T17:51:21.643Z,99.11
2023-01-28T17:53:35.121Z,99.43
2023-01-28T17:55:48.795Z,99.64
2023-01-28T17:58:02.214Z,99.80
2023-01-28T18:00:20.381Z,100.00
2023-01-28T18:02:33.781Z,100.00
2023-01-28T18:04:47.699Z,100.00
2023-01-28T18:07:01.231Z,100.00
2023-01-28T18:09:14.985Z,100.00
2023-01-28T18:11:28.245Z,100.00
2023-01-28T18:13:43.671Z,100.00
2023-01-28T18:15:57.111Z,100.00
2023-01-28T18:18:13.752Z,100.00
2023-01-28T18:20:27.358Z,99.77
2023-01-28T18:22:40.379Z,99.77
2023-01-28T18:24:53.599Z,99.63
2023-01-28T18:27:07.575Z,99.83
2023-01-28T18:29:21.731Z,99.89
2023-01-28T18:31:34.980Z,99.95
2023-01-28T18:33:48.558Z,99.88
2023-01-28T18:36:01.705Z,99.76
2023-01-28T18:38:15.870Z,98.97
2023-01-28T18:40:29.655Z,98.47
2023-01-28T18:42:43.109Z,97.97
2023-01-28T18:44:56.469Z,97.59
2023-01-28T18:47:10.640Z,97.73
2023-01-28T18:49:23.661Z,97.75
2023-01-28T18:51:37.158Z,97.51
2023-01-28T18:53:50.065Z,97.45
2023-01-28T18:56:06.943Z,97.26
2023-01-28T18:58:19.854Z,96.89
2023-01-28T19:00:33.191Z,97.59
2023-01-28T19:02:47.011Z,97.80
2023-01-28T19:05:01.331Z,97.86
2023-01-28T19:07:14.637Z,97.73
2023-01-28T19:09:27.842Z,97.69
2023-01-28T19:11:42.174Z,97.72
2023-01-28T19:13:54.999Z,98.09
2023-01-28T19:16:10.034Z,97.70
2023-01-28T19:18:24.010Z,97.82
2023-01-28T19:20:37.682Z,97.30
2023-01-28T19:22:51.326Z,97.30
2023-01-28T19:25:04.260Z,97.54
2023-01-28T19:27:17.520Z,97.14
2023-01-28T19:29:31.892Z,96.74
2023-01-28T19:31:44.864Z,96.00
2023-01-28T19:34:01.063Z,96.14
2023-01-28T19:36:14.807Z,96.13
2023-01-28T19:38:28.800Z,95.53
2023-01-28T19:40:43.780Z,95.47
2023-01-28T19:42:58.123Z,95.70
2023-01-28T19:45:12.287Z,96.16
2023-01-28T19:47:26.231Z,96.25
2023-01-28T19:49:40.201Z,96.38
2023-01-28T19:51:53.370Z,96.05
2023-01-28T19:54:06.503Z,96.36
2023-01-28T19:56:20.035Z,96.48
2023-01-28T19:58:36.403Z,95.76
2023-01-28T20:00:49.400Z,93.99
2023-01-28T20:03:02.779Z,93.67
2023-01-28T20:05:16.848Z,93.32
2023-01-28T20:07:30.246Z,93.57
2023-01-28T20:09:43.656Z,94.10
2023-01-28T20:11:57.515Z,93.23
2023-01-28T20:14:11.071Z,93.49
2023-01-28T20:16:26.010Z,91.97
2023-01-28T20:18:39.090Z,92.85
2023-01-28T20:20:59.749Z,91.82
2023-01-28T20:23:13.161Z,91.91
2023-01-28T20:25:27.011Z,92.03
2023-01-28T20:27:40.031Z,92.40
2023-01-28T20:29:53.760Z,91.87
2023-01-28T20:32:17.528Z,91.94
2023-01-28T20:34:32.030Z,91.86
2023-01-28T20:36:45.319Z,92.03
2023-01-28T20:38:58.711Z,91.36
2023-01-28T20:41:16.224Z,91.02
2023-01-28T20:43:29.184Z,91.14
2023-01-28T20:45:42.420Z,90.93
2023-01-28T20:47:55.525Z,90.26
2023-01-28T20:50:10.380Z,90.38
2023-01-28T20:52:23.553Z,90.23
2023-01-28T20:54:37.523Z,89.67
2023-01-28T20:56:52.190Z,89.68
2023-01-28T20:59:07.002Z,89.06
2023-01-28T21:01:26.025Z,89.34
2023-01-28T21:03:40.962Z,90.14
2023-01-28T21:05:56.393Z,89.59
2023-01-28T21:08:09.779Z,88.75
2023-01-28T21:10:23.580Z,88.48
2023-01-28T21:12:36.998Z,88.68
2023-01-28T21:14:51.354Z,89.05
2023-01-28T21:17:05.363Z,88.81
2023-01-28T21:19:18.621Z,88.33
2023-01-28T21:21:33.760Z,88.45
2023-01-28T21:23:47.266Z,88.73
2023-01-28T21:26:03.834Z,88.80
2023-01-28T21:28:17.555Z,88.78
2023-01-28T21:30:30.763Z,88.85
2023-01-28T21:32:44.000Z,89.17
2023-01-28T21:34:57.061Z,89.18
2023-01-28T21:37:10.253Z,87.94
2023-01-28T21:39:23.350Z,87.78
2023-01-28T21:41:36.700Z,87.79
2023-01-28T21:43:53.369Z,88.28
2023-01-28T21:46:06.561Z,88.17
2023-01-28T21:48:19.765Z,88.14
2023-01-28T21:50:52.951Z,88.10
2023-01-28T21:53:08.207Z,88.12
2023-01-28T21:55:21.790Z,87.79
2023-01-28T21:57:34.733Z,87.77
2023-01-28T21:59:48.230Z,87.42
2023-01-28T22:02:02.221Z,87.55
2023-01-28T22:04:15.338Z,87.98
2023-01-28T22:06:28.753Z,87.88
2023-01-28T22:08:44.840Z,87.87
2023-01-28T22:10:58.992Z,87.30
2023-01-28T22:13:11.933Z,87.45
2023-01-28T22:15:25.487Z,87.91
2023-01-28T22:17:38.989Z,88.13
2023-01-28T22:19:52.082Z,87.61
2023-01-28T22:22:04.933Z,87.81
2023-01-28T22:24:20.067Z,87.44
2023-01-28T22:26:33.179Z,86.29
2023-01-28T22:28:47.560Z,86.14
2023-01-28T22:31:08.517Z,86.00
2023-01-28T22:33:22.169Z,86.55
2023-01-28T22:35:35.153Z,86.92
2023-01-28T22:37:49.562Z,87.09
2023-01-28T22:40:03.270Z,87.04
2023-01-28T22:42:17.036Z,86.65
2023-01-28T22:44:30.031Z,86.70
2023-01-28T22:46:43.038Z,86.31
2023-01-28T22:48:56.603Z,85.93
2023-01-28T22:51:11.112Z,85.99
2023-01-28T22:53:24.071Z,86.24
2023-01-28T22:55:39.201Z,86.31
2023-01-28T22:57:53.289Z,86.18
2023-01-28T23:00:09.213Z,86.38
2023-01-28T23:02:22.839Z,86.26
2023-01-28T23:04:36.635Z,86.36
2023-01-28T23:06:49.859Z,86.33
2023-01-28T23:09:03.279Z,86.58
2023-01-28T23:11:26.207Z,86.39
2023-01-28T23:13:52.540Z,86.35
2023-01-28T23:16:21.460Z,86.49
2023-01-28T23:18:52.489Z,86.51
2023-01-28T23:21:21.590Z,85.99
2023-01-28T23:23:51.060Z,85.46
2023-01-28T23:26:05.672Z,85.63
2023-01-28T23:28:20.412Z,85.17
2023-01-28T23:30:33.447Z,85.57
2023-01-28T23:32:49.259Z,85.92
2023-01-28T23:35:03.447Z,85.51
2023-01-28T23:37:17.697Z,85.30
2023-01-28T23:39:31.188Z,85.14
2023-01-28T23:41:44.099Z,85.44
2023-01-28T23:43:57.229Z,85.58
2023-01-28T23:46:11.511Z,85.38
2023-01-28T23:48:25.593Z,85.08
2023-01-28T23:50:39.686Z,84.96
2023-01-28T23:52:53.670Z,85.08
2023-01-28T23:55:07.439Z,84.87
2023-01-28T23:57:21.289Z,84.59
2023-01-28T23:59:34.310Z,83.64
